sensor_id;sensor_type;location;lat;lon;timestamp;pressure;altitude;pressure_sealevel;temperature;humidity
60087;BME280;45960;53.630;55.972;2023-06-04T00:00:14;99824.91;;;22.69;53.48
60087;BME280;45960;53.630;55.972;2023-06-04T00:01:15;99826.75;;;22.68;53.45
60087;BME280;45960;53.630;55.972;2023-06-04T00:02:16;99822.16;;;22.69;53.31
60087;BME280;45960;53.630;55.972;2023-06-04T00:03:17;99822.16;;;22.69;53.30
60087;BME280;45960;53.630;55.972;2023-06-04T00:04:18;99820.47;;;22.68;53.19
60087;BME280;45960;53.630;55.972;2023-06-04T00:05:19;99821.31;;;22.68;53.16
60087;BME280;45960;53.630;55.972;2023-06-04T00:06:22;99826.75;;;22.68;53.27
60087;BME280;45960;53.630;55.972;2023-06-04T00:07:23;99827.63;;;22.69;53.14
60087;BME280;45960;53.630;55.972;2023-06-04T00:08:24;99819.44;;;22.69;53.39
60087;BME280;45960;53.630;55.972;2023-06-04T00:09:25;99836.41;;;22.71;53.40
60087;BME280;45960;53.630;55.972;2023-06-04T00:10:26;99830.97;;;22.71;53.43
60087;BME280;45960;53.630;55.972;2023-06-04T00:11:27;99836.63;;;22.69;53.31
60087;BME280;45960;53.630;55.972;2023-06-04T00:12:28;99833.06;;;22.69;53.22
60087;BME280;45960;53.630;55.972;2023-06-04T00:13:29;99836.81;;;22.68;53.39
60087;BME280;45960;53.630;55.972;2023-06-04T00:14:31;99829.69;;;22.67;53.60
60087;BME280;45960;53.630;55.972;2023-06-04T00:15:32;99838.84;;;22.66;53.42
60087;BME280;45960;53.630;55.972;2023-06-04T00:16:33;99833.41;;;22.66;53.63
60087;BME280;45960;53.630;55.972;2023-06-04T00:17:36;99838.84;;;22.66;53.70
60087;BME280;45960;53.630;55.972;2023-06-04T00:18:37;99837.19;;;22.65;53.56
60087;BME280;45960;53.630;55.972;2023-06-04T00:19:39;99837.84;;;22.67;53.52
60087;BME280;45960;53.630;55.972;2023-06-04T00:20:41;99797.97;;;22.44;53.49
60087;BME280;45960;53.630;55.972;2023-06-04T00:21:42;99836.41;;;22.71;53.59
60087;BME280;45960;53.630;55.972;2023-06-04T00:22:43;99837.91;;;22.73;53.48
60087;BME280;45960;53.630;55.972;2023-06-04T00:23:44;99836.69;;;22.76;53.66
60087;BME280;45960;53.630;55.972;2023-06-04T00:24:45;99838.41;;;22.77;53.55
60087;BME280;45960;53.630;55.972;2023-06-04T00:25:46;99831.91;;;22.78;53.61
60087;BME280;45960;53.630;55.972;2023-06-04T00:26:47;99832.56;;;22.80;53.17
60087;BME280;45960;53.630;55.972;2023-06-04T00:27:48;99829.84;;;22.80;53.37
60087;BME280;45960;53.630;55.972;2023-06-04T00:28:49;99830.47;;;22.82;53.17
60087;BME280;45960;53.630;55.972;2023-06-04T00:29:50;99829.47;;;22.83;52.98
60087;BME280;45960;53.630;55.972;2023-06-04T00:30:51;99827.75;;;22.82;53.19
60087;BME280;45960;53.630;55.972;2023-06-04T00:31:53;99834.91;;;22.83;53.17
60087;BME280;45960;53.630;55.972;2023-06-04T00:32:54;99837.81;;;22.82;53.49
60087;BME280;45960;53.630;55.972;2023-06-04T00:33:55;99830.88;;;22.79;53.50
60087;BME280;45960;53.630;55.972;2023-06-04T00:34:56;99819.69;;;22.74;53.34
60087;BME280;45960;53.630;55.972;2023-06-04T00:36:05;99823.09;;;22.76;53.23
60087;BME280;45960;53.630;55.972;2023-06-04T00:37:06;99818.69;;;22.75;53.21
60087;BME280;45960;53.630;55.972;2023-06-04T00:38:07;99817.63;;;22.76;53.41
60087;BME280;45960;53.630;55.972;2023-06-04T00:39:09;99813.91;;;22.77;53.44
60087;BME280;45960;53.630;55.972;2023-06-04T00:40:11;99821.19;;;22.76;53.41
60087;BME280;45960;53.630;55.972;2023-06-04T00:41:12;99813.91;;;22.77;53.39
60087;BME280;45960;53.630;55.972;2023-06-04T00:42:13;99822.69;;;22.79;53.54
60087;BME280;45960;53.630;55.972;2023-06-04T00:43:14;99816.41;;;22.78;53.56
60087;BME280;45960;53.630;55.972;2023-06-04T00:44:15;99831.91;;;22.78;53.49
60087;BME280;45960;53.630;55.972;2023-06-04T00:45:17;99831.91;;;22.78;53.56
60087;BME280;45960;53.630;55.972;2023-06-04T00:46:24;99837.38;;;22.78;53.58
60087;BME280;45960;53.630;55.972;2023-06-04T00:47:26;99833.59;;;22.79;53.87
60087;BME280;45960;53.630;55.972;2023-06-04T00:48:27;99824.50;;;22.72;53.46
60087;BME280;45960;53.630;55.972;2023-06-04T00:49:28;99832.75;;;22.78;53.65
60087;BME280;45960;53.630;55.972;2023-06-04T00:50:30;99830.88;;;22.79;53.63
60087;BME280;45960;53.630;55.972;2023-06-04T00:51:33;99838.03;;;22.80;53.82
60087;BME280;45960;53.630;55.972;2023-06-04T00:52:35;99837.81;;;22.82;53.66
60087;BME280;45960;53.630;55.972;2023-06-04T00:53:36;99839.69;;;22.81;53.76
60087;BME280;45960;53.630;55.972;2023-06-04T00:54:37;99840.75;;;22.80;53.78
60087;BME280;45960;53.630;55.972;2023-06-04T00:55:38;99839.69;;;22.81;53.67
60087;BME280;45960;53.630;55.972;2023-06-04T00:56:40;99839.69;;;22.81;53.85
60087;BME280;45960;53.630;55.972;2023-06-04T00:57:41;99836.13;;;22.81;53.76
60087;BME280;45960;53.630;55.972;2023-06-04T00:58:42;99844.09;;;22.82;53.90
60087;BME280;45960;53.630;55.972;2023-06-04T00:59:46;99835.75;;;22.84;53.49
60087;BME280;45960;53.630;55.972;2023-06-04T01:00:47;99836.59;;;22.84;53.51
60087;BME280;45960;53.630;55.972;2023-06-04T01:01:53;99832.81;;;22.85;53.54
60087;BME280;45960;53.630;55.972;2023-06-04T01:02:58;99825.91;;;22.83;53.51
60087;BME280;45960;53.630;55.972;2023-06-04T01:04:14;99837.03;;;22.88;53.65
60087;BME280;45960;53.630;55.972;2023-06-04T01:06:51;99825.97;;;22.89;53.55
60087;BME280;45960;53.630;55.972;2023-06-04T01:07:54;99832.09;;;22.91;53.47
60087;BME280;45960;53.630;55.972;2023-06-04T01:08:57;99833.75;;;22.92;53.42
60087;BME280;45960;53.630;55.972;2023-06-04T01:09:59;99830.00;;;22.93;53.43
60087;BME280;45960;53.630;55.972;2023-06-04T01:11:00;99833.41;;;22.95;53.39
60087;BME280;45960;53.630;55.972;2023-06-04T01:12:06;99833.41;;;22.95;53.34
60087;BME280;45960;53.630;55.972;2023-06-04T01:13:07;99829.63;;;22.96;53.39
60087;BME280;45960;53.630;55.972;2023-06-04T01:14:09;99828.63;;;22.97;53.29
60087;BME280;45960;53.630;55.972;2023-06-04T01:15:11;99831.34;;;22.97;53.46
60087;BME280;45960;53.630;55.972;2023-06-04T01:16:13;99833.03;;;22.98;53.53
60087;BME280;45960;53.630;55.972;2023-06-04T01:17:29;99832.19;;;22.98;53.46
60087;BME280;45960;53.630;55.972;2023-06-04T01:18:39;99835.09;;;22.96;53.71
60087;BME280;45960;53.630;55.972;2023-06-04T01:20:51;99818.47;;;22.91;53.62
60087;BME280;45960;53.630;55.972;2023-06-04T01:21:55;99812.34;;;22.89;53.51
60087;BME280;45960;53.630;55.972;2023-06-04T01:23:24;99825.25;;;22.95;53.59
60087;BME280;45960;53.630;55.972;2023-06-04T01:24:33;99819.78;;;22.95;53.57
60087;BME280;45960;53.630;55.972;2023-06-04T01:25:39;99827.56;;;22.98;53.52
60087;BME280;45960;53.630;55.972;2023-06-04T01:26:40;99829.91;;;23.01;53.38
60087;BME280;45960;53.630;55.972;2023-06-04T01:27:41;99825.13;;;23.04;53.31
60087;BME280;45960;53.630;55.972;2023-06-04T01:28:43;99827.91;;;23.10;53.39
60087;BME280;45960;53.630;55.972;2023-06-04T01:29:46;99831.13;;;23.14;53.54
60087;BME280;45960;53.630;55.972;2023-06-04T01:30:50;99837.03;;;23.17;53.16
60087;BME280;45960;53.630;55.972;2023-06-04T01:31:52;99812.16;;;23.06;53.02
60087;BME280;45960;53.630;55.972;2023-06-04T01:32:56;99827.63;;;23.20;52.96
60087;BME280;45960;53.630;55.972;2023-06-04T01:33:57;99834.19;;;23.26;53.29
60087;BME280;45960;53.630;55.972;2023-06-04T01:35:01;99837.34;;;23.29;53.05
60087;BME280;45960;53.630;55.972;2023-06-04T01:36:03;99847.69;;;23.34;53.09
60087;BME280;45960;53.630;55.972;2023-06-04T01:37:05;99848.13;;;23.37;52.80
60087;BME280;45960;53.630;55.972;2023-06-04T01:38:06;99842.28;;;23.40;52.73
60087;BME280;45960;53.630;55.972;2023-06-04T01:39:07;99849.06;;;23.44;52.78
60087;BME280;45960;53.630;55.972;2023-06-04T01:40:09;99846.56;;;23.50;52.49
60087;BME280;45960;53.630;55.972;2023-06-04T01:41:11;99850.59;;;23.54;52.09
60087;BME280;45960;53.630;55.972;2023-06-04T01:42:12;99847.50;;;23.57;51.79
60087;BME280;45960;53.630;55.972;2023-06-04T01:43:13;99847.75;;;23.62;51.60
60087;BME280;45960;53.630;55.972;2023-06-04T01:44:14;99855.53;;;23.65;51.21
60087;BME280;45960;53.630;55.972;2023-06-04T01:45:16;99853.25;;;23.68;51.17
60087;BME280;45960;53.630;55.972;2023-06-04T01:46:17;99849.34;;;23.71;51.21
60087;BME280;45960;53.630;55.972;2023-06-04T01:47:18;99854.38;;;23.74;51.40
60087;BME280;45960;53.630;55.972;2023-06-04T01:48:19;99848.94;;;23.74;51.10
60087;BME280;45960;53.630;55.972;2023-06-04T01:49:20;99851.00;;;23.72;51.01
60087;BME280;45960;53.630;55.972;2023-06-04T01:50:21;99861.91;;;23.72;51.19
60087;BME280;45960;53.630;55.972;2023-06-04T01:51:22;99851.00;;;23.72;51.46
60087;BME280;45960;53.630;55.972;2023-06-04T01:52:24;99854.78;;;23.71;51.82
60087;BME280;45960;53.630;55.972;2023-06-04T01:53:25;99860.25;;;23.71;51.93
60087;BME280;45960;53.630;55.972;2023-06-04T01:54:26;99847.63;;;23.70;52.13
60087;BME280;45960;53.630;55.972;2023-06-04T01:55:28;99854.09;;;23.69;52.29
60087;BME280;45960;53.630;55.972;2023-06-04T01:56:34;99856.81;;;23.69;52.27
60087;BME280;45960;53.630;55.972;2023-06-04T01:57:35;99854.31;;;23.67;52.46
60087;BME280;45960;53.630;55.972;2023-06-04T01:58:37;99852.41;;;23.68;52.44
60087;BME280;45960;53.630;55.972;2023-06-04T01:59:38;99862.28;;;23.69;52.48
60087;BME280;45960;53.630;55.972;2023-06-04T02:00:39;99858.53;;;23.70;52.34
60087;BME280;45960;53.630;55.972;2023-06-04T02:01:41;99862.28;;;23.69;52.47
60087;BME280;45960;53.630;55.972;2023-06-04T02:02:44;99864.00;;;23.70;52.59
60087;BME280;45960;53.630;55.972;2023-06-04T02:03:49;99859.56;;;23.69;52.63
60087;BME280;45960;53.630;55.972;2023-06-04T02:04:52;99869.44;;;23.70;52.79
60087;BME280;45960;53.630;55.972;2023-06-04T02:05:53;99866.53;;;23.72;52.79
60087;BME280;45960;53.630;55.972;2023-06-04T02:06:54;99863.63;;;23.73;52.81
60087;BME280;45960;53.630;55.972;2023-06-04T02:07:56;99867.38;;;23.72;52.68
60087;BME280;45960;53.630;55.972;2023-06-04T02:08:58;99862.41;;;23.76;52.84
60087;BME280;45960;53.630;55.972;2023-06-04T02:10:01;99860.50;;;23.76;52.49
60087;BME280;45960;53.630;55.972;2023-06-04T02:11:05;99861.16;;;23.78;52.26
60087;BME280;45960;53.630;55.972;2023-06-04T02:12:06;99868.28;;;23.79;52.09
60087;BME280;45960;53.630;55.972;2023-06-04T02:13:07;99860.75;;;23.81;52.14
60087;BME280;45960;53.630;55.972;2023-06-04T02:14:08;99856.97;;;23.82;52.03
60087;BME280;45960;53.630;55.972;2023-06-04T02:15:10;99862.25;;;23.84;51.86
60087;BME280;45960;53.630;55.972;2023-06-04T02:16:11;99855.75;;;23.85;51.81
60087;BME280;45960;53.630;55.972;2023-06-04T02:17:13;99865.03;;;23.90;51.47
60087;BME280;45960;53.630;55.972;2023-06-04T02:18:16;99864.63;;;23.94;51.24
60087;BME280;45960;53.630;55.972;2023-06-04T02:19:42;99854.16;;;23.97;51.14
60087;BME280;45960;53.630;55.972;2023-06-04T02:20:50;99868.06;;;24.02;50.91
60087;BME280;45960;53.630;55.972;2023-06-04T02:21:52;99860.34;;;24.06;50.75
60087;BME280;45960;53.630;55.972;2023-06-04T02:22:55;99857.22;;;24.09;50.42
60087;BME280;45960;53.630;55.972;2023-06-04T02:23:56;99848.81;;;24.10;50.04
60087;BME280;45960;53.630;55.972;2023-06-04T02:24:57;99860.56;;;24.11;50.34
60087;BME280;45960;53.630;55.972;2023-06-04T02:25:58;99849.47;;;24.12;50.22
60087;BME280;45960;53.630;55.972;2023-06-04T02:26:59;99854.72;;;24.14;50.22
60087;BME280;45960;53.630;55.972;2023-06-04T02:28:00;99859.16;;;24.15;50.40
60087;BME280;45960;53.630;55.972;2023-06-04T02:29:01;99858.50;;;24.13;50.70
60087;BME280;45960;53.630;55.972;2023-06-04T02:30:03;99842.94;;;24.13;50.83
60087;BME280;45960;53.630;55.972;2023-06-04T02:31:06;99845.06;;;24.11;50.94
60087;BME280;45960;53.630;55.972;2023-06-04T02:32:08;99848.63;;;24.12;50.85
60087;BME280;45960;53.630;55.972;2023-06-04T02:33:10;99850.06;;;24.08;50.95
60087;BME280;45960;53.630;55.972;2023-06-04T02:34:11;99855.50;;;24.08;50.86
60087;BME280;45960;53.630;55.972;2023-06-04T02:35:12;99842.91;;;24.07;50.96
60087;BME280;45960;53.630;55.972;2023-06-04T02:36:13;99841.25;;;24.06;50.68
60087;BME280;45960;53.630;55.972;2023-06-04T02:37:14;99841.25;;;24.06;50.90
60087;BME280;45960;53.630;55.972;2023-06-04T02:38:15;99840.38;;;24.05;50.92
60087;BME280;45960;53.630;55.972;2023-06-04T02:39:18;99843.09;;;24.05;50.92
60087;BME280;45960;53.630;55.972;2023-06-04T02:40:20;99839.53;;;24.05;50.78
60087;BME280;45960;53.630;55.972;2023-06-04T02:41:22;99834.47;;;24.02;51.32
60087;BME280;45960;53.630;55.972;2023-06-04T02:42:23;99842.09;;;24.06;51.24
60087;BME280;45960;53.630;55.972;2023-06-04T02:43:24;99841.25;;;24.06;51.03
60087;BME280;45960;53.630;55.972;2023-06-04T02:44:25;99841.25;;;24.06;51.06
60087;BME280;45960;53.630;55.972;2023-06-04T02:45:27;99835.78;;;24.06;51.08
60087;BME280;45960;53.630;55.972;2023-06-04T02:46:29;99839.97;;;24.08;50.97
60087;BME280;45960;53.630;55.972;2023-06-04T02:47:30;99840.44;;;24.12;51.12
60087;BME280;45960;53.630;55.972;2023-06-04T02:48:31;99803.78;;;23.93;51.10
60087;BME280;45960;53.630;55.972;2023-06-04T02:49:33;99847.19;;;24.16;50.92
60087;BME280;45960;53.630;55.972;2023-06-04T02:50:34;99845.09;;;24.18;50.60
60087;BME280;45960;53.630;55.972;2023-06-04T02:51:36;99850.16;;;24.21;50.24
60087;BME280;45960;53.630;55.972;2023-06-04T02:52:37;99849.09;;;24.22;50.05
60087;BME280;45960;53.630;55.972;2023-06-04T02:53:38;99861.31;;;24.26;50.25
60087;BME280;45960;53.630;55.972;2023-06-04T02:54:39;99858.19;;;24.29;50.41
60087;BME280;45960;53.630;55.972;2023-06-04T02:55:41;99850.66;;;24.31;50.27
60087;BME280;45960;53.630;55.972;2023-06-04T02:56:42;99854.91;;;24.41;50.15
60087;BME280;45960;53.630;55.972;2023-06-04T02:57:46;99855.38;;;24.44;49.80
60087;BME280;45960;53.630;55.972;2023-06-04T02:58:52;99831.75;;;24.37;50.03
60087;BME280;45960;53.630;55.972;2023-06-04T02:59:54;99837.75;;;24.47;50.18
60087;BME280;45960;53.630;55.972;2023-06-04T03:00:56;99847.44;;;24.56;49.91
60087;BME280;45960;53.630;55.972;2023-06-04T03:01:57;99843.28;;;24.60;49.99
60087;BME280;45960;53.630;55.972;2023-06-04T03:02:58;99839.97;;;24.65;49.68
60087;BME280;45960;53.630;55.972;2023-06-04T03:04:02;99840.41;;;24.68;49.90
60087;BME280;45960;53.630;55.972;2023-06-04T03:05:07;99837.03;;;24.73;49.51
60087;BME280;45960;53.630;55.972;2023-06-04T03:06:09;99839.16;;;24.77;49.57
60087;BME280;45960;53.630;55.972;2023-06-04T03:07:11;99842.13;;;24.83;49.33
60087;BME280;45960;53.630;55.972;2023-06-04T03:08:13;99836.91;;;24.88;49.15
60087;BME280;45960;53.630;55.972;2023-06-04T03:09:14;99835.44;;;24.92;48.93
60087;BME280;45960;53.630;55.972;2023-06-04T03:10:15;99839.06;;;24.99;48.70
60087;BME280;45960;53.630;55.972;2023-06-04T03:11:19;99822.00;;;24.90;49.13
60087;BME280;45960;53.630;55.972;2023-06-04T03:12:23;99835.09;;;25.08;48.74
60087;BME280;45960;53.630;55.972;2023-06-04T03:13:24;99784.53;;;24.77;48.38
60087;BME280;45960;53.630;55.972;2023-06-04T03:14:25;99838.03;;;25.13;47.70
60087;BME280;45960;53.630;55.972;2023-06-04T03:15:32;99836.00;;;25.15;47.46
60087;BME280;45960;53.630;55.972;2023-06-04T03:16:33;99838.31;;;25.18;47.46
60087;BME280;45960;53.630;55.972;2023-06-04T03:17:34;99831.78;;;25.19;47.87
60087;BME280;45960;53.630;55.972;2023-06-04T03:18:37;99836.41;;;25.26;48.10
60087;BME280;45960;53.630;55.972;2023-06-04T03:19:39;99838.13;;;25.27;48.02
60087;BME280;45960;53.630;55.972;2023-06-04T03:20:41;99829.91;;;25.27;47.75
60087;BME280;45960;53.630;55.972;2023-06-04T03:21:42;99830.53;;;25.29;47.63
60087;BME280;45960;53.630;55.972;2023-06-04T03:22:44;99832.25;;;25.30;47.67
60087;BME280;45960;53.630;55.972;2023-06-04T03:23:45;99831.81;;;25.33;47.29
60087;BME280;45960;53.630;55.972;2023-06-04T03:24:46;99832.66;;;25.40;47.17
60087;BME280;45960;53.630;55.972;2023-06-04T03:25:47;99828.47;;;25.44;47.55
60087;BME280;45960;53.630;55.972;2023-06-04T03:26:49;99828.06;;;25.47;47.30
60087;BME280;45960;53.630;55.972;2023-06-04T03:27:50;99825.31;;;25.47;47.16
60087;BME280;45960;53.630;55.972;2023-06-04T03:28:51;99827.41;;;25.45;47.05
60087;BME280;45960;53.630;55.972;2023-06-04T03:29:54;99823.84;;;25.44;46.86
60087;BME280;45960;53.630;55.972;2023-06-04T03:30:55;99815.44;;;25.46;47.08
60087;BME280;45960;53.630;55.972;2023-06-04T03:31:59;99815.44;;;25.53;46.87
60087;BME280;45960;53.630;55.972;2023-06-04T03:33:01;99818.38;;;25.64;46.94
60087;BME280;45960;53.630;55.972;2023-06-04T03:34:03;99828.06;;;25.74;46.21
60087;BME280;45960;53.630;55.972;2023-06-04T03:35:04;99824.72;;;25.78;45.47
60087;BME280;45960;53.630;55.972;2023-06-04T03:36:07;99820.97;;;25.86;45.42
60087;BME280;45960;53.630;55.972;2023-06-04T03:37:10;99811.28;;;25.83;45.19
60087;BME280;45960;53.630;55.972;2023-06-04T03:38:11;99827.25;;;26.06;45.34
60087;BME280;45960;53.630;55.972;2023-06-04T03:39:13;99825.78;;;26.17;45.24
60087;BME280;45960;53.630;55.972;2023-06-04T03:40:14;99831.44;;;26.29;44.93
60087;BME280;45960;53.630;55.972;2023-06-04T03:41:18;99819.19;;;26.38;44.75
60087;BME280;45960;53.630;55.972;2023-06-04T03:42:19;99819.59;;;26.48;45.10
60087;BME280;45960;53.630;55.972;2023-06-04T03:43:21;99814.53;;;26.59;45.02
60087;BME280;45960;53.630;55.972;2023-06-04T03:44:25;99822.94;;;26.70;44.89
60087;BME280;45960;53.630;55.972;2023-06-04T03:45:27;99819.13;;;26.78;44.90
60087;BME280;45960;53.630;55.972;2023-06-04T03:46:29;99816.97;;;26.87;44.92
60087;BME280;45960;53.630;55.972;2023-06-04T03:47:35;99802.22;;;26.81;44.63
60087;BME280;45960;53.630;55.972;2023-06-04T03:48:37;99816.47;;;26.96;44.29
60087;BME280;45960;53.630;55.972;2023-06-04T03:49:39;99781.56;;;26.78;43.86
60087;BME280;45960;53.630;55.972;2023-06-04T03:50:40;99824.00;;;27.08;43.52
60087;BME280;45960;53.630;55.972;2023-06-04T03:51:42;99821.47;;;27.13;43.14
60087;BME280;45960;53.630;55.972;2023-06-04T03:52:44;99813.47;;;27.18;43.47
60087;BME280;45960;53.630;55.972;2023-06-04T03:53:45;99809.63;;;27.26;43.60
60087;BME280;45960;53.630;55.972;2023-06-04T03:54:46;99816.13;;;27.31;43.40
60087;BME280;45960;53.630;55.972;2023-06-04T03:55:47;99809.13;;;27.35;43.27
60087;BME280;45960;53.630;55.972;2023-06-04T03:56:48;99820.47;;;27.45;42.69
60087;BME280;45960;53.630;55.972;2023-06-04T03:57:51;99807.75;;;27.51;42.51
60087;BME280;45960;53.630;55.972;2023-06-04T03:58:53;99815.28;;;27.56;42.32
60087;BME280;45960;53.630;55.972;2023-06-04T03:59:54;99817.00;;;27.57;41.97
60087;BME280;45960;53.630;55.972;2023-06-04T04:00:56;99810.63;;;27.63;41.94
60087;BME280;45960;53.630;55.972;2023-06-04T04:01:58;99812.63;;;27.74;42.08
60087;BME280;45960;53.630;55.972;2023-06-04T04:03:01;99805.63;;;27.78;41.88
60087;BME280;45960;53.630;55.972;2023-06-04T04:04:05;99794.50;;;27.73;41.54
60087;BME280;45960;53.630;55.972;2023-06-04T04:05:06;99813.16;;;27.89;41.96
60087;BME280;45960;53.630;55.972;2023-06-04T04:06:09;99804.22;;;28.01;41.87
60087;BME280;45960;53.630;55.972;2023-06-04T04:07:12;99809.78;;;28.13;42.00
60087;BME280;45960;53.630;55.972;2023-06-04T04:08:13;99815.13;;;28.26;42.31
60087;BME280;45960;53.630;55.972;2023-06-04T04:09:18;99791.88;;;28.28;41.70
60087;BME280;45960;53.630;55.972;2023-06-04T04:10:19;99819.56;;;28.52;41.52
60087;BME280;45960;53.630;55.972;2023-06-04T04:11:20;99821.53;;;28.63;42.03
60087;BME280;45960;53.630;55.972;2023-06-04T04:12:22;99827.31;;;28.73;41.39
60087;BME280;45960;53.630;55.972;2023-06-04T04:13:25;99800.28;;;28.70;40.95
60087;BME280;45960;53.630;55.972;2023-06-04T04:14:26;99820.81;;;28.86;40.58
60087;BME280;45960;53.630;55.972;2023-06-04T04:15:27;99816.94;;;28.94;41.39
60087;BME280;45960;53.630;55.972;2023-06-04T04:16:29;99821.50;;;29.00;41.25
60087;BME280;45960;53.630;55.972;2023-06-04T04:17:30;99824.88;;;29.02;40.51
60087;BME280;45960;53.630;55.972;2023-06-04T04:18:33;99818.31;;;29.03;40.64
60087;BME280;45960;53.630;55.972;2023-06-04T04:19:34;99818.31;;;29.03;40.35
60087;BME280;45960;53.630;55.972;2023-06-04T04:20:35;99815.56;;;29.03;40.65
60087;BME280;45960;53.630;55.972;2023-06-04T04:21:41;99828.22;;;29.04;41.00
60087;BME280;45960;53.630;55.972;2023-06-04T04:22:42;99820.59;;;29.06;40.53
60087;BME280;45960;53.630;55.972;2023-06-04T04:23:45;99823.97;;;29.08;40.85
60087;BME280;45960;53.630;55.972;2023-06-04T04:24:47;99805.38;;;29.04;40.94
60087;BME280;45960;53.630;55.972;2023-06-04T04:25:48;99812.03;;;29.14;41.10
60087;BME280;45960;53.630;55.972;2023-06-04T04:26:49;99816.00;;;29.18;41.35
60087;BME280;45960;53.630;55.972;2023-06-04T04:27:54;99816.84;;;29.19;41.21
60087;BME280;45960;53.630;55.972;2023-06-04T04:28:58;99794.31;;;29.10;40.91
60087;BME280;45960;53.630;55.972;2023-06-04T04:30:05;99822.47;;;29.24;40.05
60087;BME280;45960;53.630;55.972;2023-06-04T04:31:07;99812.88;;;29.27;40.25
60087;BME280;45960;53.630;55.972;2023-06-04T04:32:10;99808.84;;;29.29;39.86
60087;BME280;45960;53.630;55.972;2023-06-04T04:33:12;99805.88;;;29.31;39.67
60087;BME280;45960;53.630;55.972;2023-06-04T04:34:19;99819.75;;;29.36;39.17
60087;BME280;45960;53.630;55.972;2023-06-04T04:35:23;99817.97;;;29.41;38.59
60087;BME280;45960;53.630;55.972;2023-06-04T04:36:25;99799.41;;;29.37;38.79
60087;BME280;45960;53.630;55.972;2023-06-04T04:37:27;99818.34;;;29.45;38.21
60087;BME280;45960;53.630;55.972;2023-06-04T04:38:31;99815.72;;;29.50;38.34
60087;BME280;45960;53.630;55.972;2023-06-04T04:39:38;99819.34;;;29.62;37.68
60087;BME280;45960;53.630;55.972;2023-06-04T04:40:39;99825.63;;;29.70;37.69
60087;BME280;45960;53.630;55.972;2023-06-04T04:41:41;99824.53;;;29.82;37.76
60087;BME280;45960;53.630;55.972;2023-06-04T04:42:42;99830.19;;;29.99;37.22
60087;BME280;45960;53.630;55.972;2023-06-04T04:43:45;99815.59;;;30.10;37.11
60087;BME280;45960;53.630;55.972;2023-06-04T04:44:52;99823.78;;;30.29;37.21
60087;BME280;45960;53.630;55.972;2023-06-04T04:45:57;99820.31;;;30.33;36.79
60087;BME280;45960;53.630;55.972;2023-06-04T04:46:58;99817.28;;;30.35;36.99
60087;BME280;45960;53.630;55.972;2023-06-04T04:47:59;99818.69;;;30.49;36.72
60087;BME280;45960;53.630;55.972;2023-06-04T04:49:01;99819.75;;;30.72;36.96
60087;BME280;45960;53.630;55.972;2023-06-04T04:50:04;99816.47;;;30.98;36.14
60087;BME280;45960;53.630;55.972;2023-06-04T04:51:05;99821.38;;;31.25;36.24
60087;BME280;45960;53.630;55.972;2023-06-04T04:52:06;99820.81;;;31.52;36.12
60087;BME280;45960;53.630;55.972;2023-06-04T04:53:08;99815.94;;;31.76;35.18
60087;BME280;45960;53.630;55.972;2023-06-04T04:54:10;99820.53;;;31.99;34.69
60087;BME280;45960;53.630;55.972;2023-06-04T04:55:13;99821.97;;;32.23;34.25
60087;BME280;45960;53.630;55.972;2023-06-04T04:56:16;99819.44;;;32.39;33.39
60087;BME280;45960;53.630;55.972;2023-06-04T04:57:22;99815.78;;;32.50;33.74
60087;BME280;45960;53.630;55.972;2023-06-04T04:58:25;99810.56;;;32.53;33.22
60087;BME280;45960;53.630;55.972;2023-06-04T04:59:28;99817.72;;;32.71;32.90
60087;BME280;45960;53.630;55.972;2023-06-04T05:00:31;99827.22;;;32.81;32.97
60087;BME280;45960;53.630;55.972;2023-06-04T05:01:32;99817.97;;;32.92;33.45
60087;BME280;45960;53.630;55.972;2023-06-04T05:02:35;99797.41;;;32.88;33.17
60087;BME280;45960;53.630;55.972;2023-06-04T05:03:37;99811.38;;;32.98;32.17
60087;BME280;45960;53.630;55.972;2023-06-04T05:04:38;99810.63;;;32.81;32.05
60087;BME280;45960;53.630;55.972;2023-06-04T05:05:39;99820.28;;;32.56;32.42
60087;BME280;45960;53.630;55.972;2023-06-04T05:06:41;99814.50;;;32.41;32.91
60087;BME280;45960;53.630;55.972;2023-06-04T05:07:42;99812.09;;;32.27;32.57
60087;BME280;45960;53.630;55.972;2023-06-04T05:08:43;99808.44;;;32.22;32.74
60087;BME280;45960;53.630;55.972;2023-06-04T05:09:45;99776.72;;;32.07;33.07
60087;BME280;45960;53.630;55.972;2023-06-04T05:10:47;99808.41;;;32.39;33.58
60087;BME280;45960;53.630;55.972;2023-06-04T05:11:48;99809.72;;;32.53;33.75
60087;BME280;45960;53.630;55.972;2023-06-04T05:12:56;99801.56;;;32.63;33.87
60087;BME280;45960;53.630;55.972;2023-06-04T05:14:02;99792.25;;;32.69;34.01
60087;BME280;45960;53.630;55.972;2023-06-04T05:15:04;99793.81;;;32.87;33.86
60087;BME280;45960;53.630;55.972;2023-06-04T05:16:05;99803.03;;;32.93;34.08
60087;BME280;45960;53.630;55.972;2023-06-04T05:17:08;99807.94;;;32.86;33.58
60087;BME280;45960;53.630;55.972;2023-06-04T05:18:11;99802.25;;;32.75;33.68
60087;BME280;45960;53.630;55.972;2023-06-04T05:19:16;99806.00;;;32.64;34.25
60087;BME280;45960;53.630;55.972;2023-06-04T05:20:18;99797.47;;;32.49;34.87
60087;BME280;45960;53.630;55.972;2023-06-04T05:21:19;99804.72;;;32.50;34.95
60087;BME280;45960;53.630;55.972;2023-06-04T05:22:34;99806.44;;;32.56;35.46
60087;BME280;45960;53.630;55.972;2023-06-04T05:23:38;99801.28;;;32.65;34.92
60087;BME280;45960;53.630;55.972;2023-06-04T05:24:41;99809.47;;;32.76;34.88
60087;BME280;45960;53.630;55.972;2023-06-04T05:25:42;99807.94;;;32.86;34.91
60087;BME280;45960;53.630;55.972;2023-06-04T05:26:43;99804.13;;;32.92;35.17
60087;BME280;45960;53.630;55.972;2023-06-04T05:27:50;99803.69;;;33.00;34.43
60087;BME280;45960;53.630;55.972;2023-06-04T05:28:53;99796.59;;;33.09;34.60